Terminal Aerodrome Forecast
Issued by NWS

Home | Current Version | Previous Version | Text Only | Print | Product List | Glossary On
Versions: 1 2 3 4 5 6 7 8 9 10 11 12 13 14 15 16
000
FTUS43 KAPX 250500 RRA
TAFMBL
TAF
KMBL 250548Z 2506/2606 18003KT P6SM SCT005 BKN040
     FM250630 20003KT 5SM -DZ BR OVC005
     FM250830 27007KT P6SM OVC008
     FM251300 28010G18KT P6SM SCT035
     FM260000 30008KT P6SM SKC
      AMD LTD TO CLD VIS AND WIND=

USA.gov is the U.S. government's official web portal to all federal, state and local government web resources and services.